Time;durP1;ratioP1;P1;durP2;ratioP2;P2;SDS_P1;SDS_P2;PMS_P1;PMS_P2;Temp;Humidity;BMP_temperature;BMP_pressure;BME280_temperature;BME280_humidity;BME280_pressure;Samples;Min_cycle;Max_cycle;Signal;HPM_P1;HPM_P2
2022/04/16 00:03:11;;;;;;;0.80;0.72;;;;;;;13.77;50.17;100688.88;1751947;111;25896;-81
2022/04/16 00:06:47;;;;;;;0.72;0.72;;;;;;;13.72;50.18;100694.05;1731889;112;25731;-82
2022/04/16 00:10:26;;;;;;;0.70;0.70;;;;;;;13.67;50.24;100697.05;1737039;111;25862;-80
2022/04/16 00:14:09;;;;;;;0.90;0.68;;;;;;;13.64;50.22;100698.30;1732187;112;25900;-80
2022/04/16 00:17:51;;;;;;;1.05;0.85;;;;;;;13.64;50.20;100693.94;1727497;110;26371;-81
2022/04/16 00:21:12;;;;;;;0.95;0.90;;;;;;;13.62;50.15;100698.27;1728275;113;26330;-80
2022/04/16 00:24:50;;;;;;;1.42;0.70;;;;;;;13.62;50.15;100698.27;1727325;113;25956;-81
2022/04/16 00:28:26;;;;;;;1.27;0.88;;;;;;;13.42;50.23;100687.89;1850671;104;25895;-81
2022/04/16 00:32:04;;;;;;;2.55;1.00;;;;;;;13.42;50.23;100687.89;1864496;104;26013;-80
2022/04/16 00:35:34;;;;;;;1.10;0.72;;;;;;;13.53;49.99;100707.27;1863458;104;26517;-80
2022/04/16 00:39:13;;;;;;;1.42;0.88;;;;;;;13.46;49.96;100702.39;1865011;106;25849;-80
2022/04/16 00:42:53;;;;;;;0.80;0.60;;;;;;;13.46;49.96;100702.39;1870120;103;26002;-81
2022/04/16 00:46:24;;;;;;;0.80;0.80;;;;;;;13.45;49.95;100718.06;1916915;101;25876;-81
2022/04/16 00:49:52;;;;;;;2.12;0.65;;;;;;;13.40;49.94;100715.37;1915681;101;26502;-80
2022/04/16 00:53:21;;;;;;;0.90;0.75;;;;;;;13.34;49.92;100715.69;1967741;100;25898;-80
2022/04/16 00:56:44;;;;;;;0.95;0.95;;;;;;;13.30;49.93;100720.42;1974633;100;25763;-80
2022/04/16 01:00:16;;;;;;;1.72;0.98;;;;;;;13.25;49.93;100721.63;1975439;100;25855;-80
2022/04/16 01:03:45;;;;;;;1.20;1.10;;;;;;;13.23;49.88;100729.44;1974308;98;25872;-81
2022/04/16 01:07:41;;;;;;;1.07;0.90;;;;;;;13.18;49.89;100730.20;2039625;95;25788;-80
2022/04/16 01:11:18;;;;;;;2.05;1.00;;;;;;;13.17;49.89;100734.98;2082544;93;25826;-81
2022/04/16 01:14:50;;;;;;;1.25;1.00;;;;;;;13.13;49.81;100743.64;2020278;96;25861;-81
2022/04/16 01:18:45;;;;;;;2.08;0.82;;;;;;;13.07;49.86;100752.69;1933567;100;25877;-80
2022/04/16 01:22:21;;;;;;;1.22;1.12;;;;;;;13.02;49.88;100755.19;1934204;100;25406;-80
2022/04/16 01:25:46;;;;;;;1.32;1.17;;;;;;;12.98;49.93;100754.25;1881885;103;25829;-79
2022/04/16 01:29:15;;;;;;;0.88;0.85;;;;;;;12.97;49.94;100760.34;1882419;103;25762;-80
2022/04/16 01:32:59;;;;;;;;;;;;;;;;;;;;;
2022/04/16 01:40:11;;;;;;;1.20;1.10;;;;;;;12.90;49.83;100767.62;1922951;102;25856;-80
2022/04/16 01:43:52;;;;;;;1.20;1.10;;;;;;;12.91;49.78;100765.45;1931653;99;25859;-80
2022/04/16 01:47:20;;;;;;;;;;;;;;;12.87;49.61;100776.72;1908430;101;25867;-81
2022/04/16 01:50:54;;;;;;;1.32;1.20;;;;;;;12.82;49.60;100784.88;1914851;103;25973;-79
2022/04/16 01:54:27;;;;;;;1.27;1.17;;;;;;;12.76;49.54;100789.58;1912690;101;26002;-79
2022/04/16 01:58:20;;;;;;;1.32;1.22;;;;;;;12.74;49.53;100791.27;1915376;102;25820;-80
2022/04/16 02:01:55;;;;;;;1.27;1.10;;;;;;;12.74;49.47;100789.96;1914565;102;25875;-83
2022/04/16 02:05:18;;;;;;;2.37;1.17;;;;;;;12.73;49.39;100803.02;1896723;103;25859;-80
2022/04/16 02:08:42;;;;;;;;;;;;;;;12.70;49.34;100801.64;1917495;101;25788;-80
2022/04/16 02:12:13;;;;;;;1.40;1.20;;;;;;;12.69;49.34;100795.94;2065760;95;25779;-79
2022/04/16 02:15:59;;;;;;;1.80;1.45;;;;;;;12.64;49.36;100797.59;2382881;80;25699;-80
2022/04/16 02:19:44;;;;;;;;;;;;;;;;;;;;;
2022/04/16 02:23:26;;;;;;;1.20;1.10;;;;;;;12.59;49.28;100794.88;2298794;84;25747;-81
2022/04/16 02:26:58;;;;;;;1.30;1.20;;;;;;;12.58;49.26;100810.52;2296880;85;25691;-80
2022/04/16 02:30:22;;;;;;;2.05;1.27;;;;;;;12.57;49.25;100803.11;2182985;89;25627;-80
2022/04/16 02:34:02;;;;;;;1.75;1.40;;;;;;;12.57;49.20;100812.69;2165609;90;26069;-80
2022/04/16 02:37:28;;;;;;;1.30;1.20;;;;;;;12.55;49.17;100812.63;2165031;89;25694;-80
2022/04/16 02:41:03;;;;;;;1.12;0.93;;;;;;;12.53;49.16;100816.97;2185070;90;25823;-80
2022/04/16 02:52:15;;;;;;;1.22;1.12;;;;;;;12.46;48.85;100826.83;2185213;89;25541;-82
2022/04/16 02:55:41;;;;;;;1.47;1.37;;;;;;;12.44;48.80;100837.67;2185390;89;25727;-81
2022/04/16 02:59:27;;;;;;;5.10;1.00;;;;;;;12.40;48.71;100839.77;2184026;89;25670;-80
2022/04/16 03:02:56;;;;;;;0.80;0.80;;;;;;;12.37;48.64;100839.26;2147961;90;25701;-81
2022/04/16 03:06:28;;;;;;;3.35;1.10;;;;;;;12.36;48.52;100847.08;2143687;91;25739;-80
2022/04/16 03:10:15;;;;;;;0.93;0.93;;;;;;;12.34;48.41;100851.38;2092686;93;26439;-81
2022/04/16 03:13:44;;;;;;;1.30;1.17;;;;;;;12.31;48.30;100851.30;1983093;96;25807;-82
2022/04/16 03:21:06;;;;;;;1.57;1.07;;;;;;;12.26;48.19;100858.61;1941437;100;34837;-81
2022/04/16 03:24:28;;;;;;;1.32;1.20;;;;;;;12.26;48.08;100870.38;1939968;100;26240;-81
2022/04/16 03:28:04;;;;;;;1.00;0.90;;;;;;;12.28;47.98;100871.70;1924499;100;25816;-80
2022/04/16 03:31:56;;;;;;;2.37;1.00;;;;;;;12.25;47.88;100875.55;1844138;106;25855;-81
2022/04/16 03:35:25;;;;;;;1.80;1.00;;;;;;;12.22;47.80;100880.30;1859131;104;26228;-81
2022/04/16 03:39:05;;;;;;;2.10;1.22;;;;;;;12.21;47.66;100887.66;1832962;107;25971;-81
2022/04/16 03:42:28;;;;;;;1.10;1.00;;;;;;;12.18;47.63;100886.31;1833671;106;26130;-82
2022/04/16 03:49:27;;;;;;;1.80;1.00;;;;;;;12.13;47.48;100894.45;1880575;104;25861;-82
2022/04/16 03:52:56;;;;;;;1.47;1.07;;;;;;;12.13;47.26;100904.02;1893734;104;25987;-81
2022/04/16 04:00:33;;;;;;;1.20;0.93;;;;;;;12.10;47.07;100918.31;1920244;102;25855;-80
2022/04/16 04:03:56;;;;;;;1.95;0.82;;;;;;;12.04;46.92;100921.64;1866717;102;25830;-81
2022/04/16 04:07:40;;;;;;;1.20;0.80;;;;;;;12.01;46.76;100928.09;1878008;103;25945;-81
2022/04/16 04:11:03;;;;;;;1.90;1.00;;;;;;;11.99;46.53;100928.06;1825793;105;45048;-82
2022/04/16 04:14:27;;;;;;;3.00;0.90;;;;;;;12.19;46.31;100944.70;1833036;106;25858;-80
2022/04/16 04:18:02;;;;;;;1.00;0.80;;;;;;;12.25;45.84;100940.52;1831230;106;25845;-81
2022/04/16 04:21:26;;;;;;;1.27;0.80;;;;;;;12.23;45.60;100950.03;1829002;106;25834;-81
2022/04/16 04:24:47;;;;;;;0.72;0.72;;;;;;;12.20;45.49;100952.56;1831008;106;26076;-81
2022/04/16 04:28:13;;;;;;;1.10;0.80;;;;;;;12.20;45.38;100947.77;1831075;107;31074;-80
2022/04/16 04:31:38;;;;;;;0.88;0.75;;;;;;;12.18;45.18;100966.43;1832993;106;25877;-80
2022/04/16 04:35:01;;;;;;;1.20;0.80;;;;;;;12.12;45.00;100963.69;1788081;109;25937;-80
2022/04/16 04:38:44;;;;;;;0.70;0.70;;;;;;;12.08;45.00;100969.22;1773272;111;25892;-80
2022/04/16 04:42:07;;;;;;;1.37;0.78;;;;;;;12.09;45.00;100977.97;1772304;110;26049;-80
2022/04/16 04:45:40;;;;;;;0.90;0.80;;;;;;;12.05;44.97;100979.63;1776417;110;25881;-81
2022/04/16 04:49:11;;;;;;;0.70;0.55;;;;;;;12.02;45.01;100997.40;1801750;107;25876;-80
2022/04/16 04:52:36;;;;;;;1.27;0.88;;;;;;;11.98;45.05;100998.16;1808584;107;25903;-79
2022/04/16 04:56:09;;;;;;;2.60;0.80;;;;;;;11.95;45.01;101002.00;1832007;107;25851;-80
2022/04/16 04:59:28;;;;;;;1.72;0.82;;;;;;;11.89;45.04;101007.05;1845410;104;26018;-80
2022/04/16 05:03:04;;;;;;;2.52;0.90;;;;;;;11.83;45.09;101015.55;1890030;103;25846;-80
2022/04/16 05:06:39;;;;;;;0.93;0.60;;;;;;;11.80;45.14;101019.38;1915549;97;25760;-81
2022/04/16 05:10:06;;;;;;;1.05;0.95;;;;;;;11.83;45.19;101026.42;1992118;97;25827;-80
2022/04/16 05:13:36;;;;;;;1.20;0.70;;;;;;;11.86;45.19;101023.06;1969355;100;25644;-80
2022/04/16 05:17:17;;;;;;;0.70;0.53;;;;;;;11.91;45.17;101029.28;2016876;96;25845;-80
2022/04/16 05:20:35;;;;;;;3.58;0.60;;;;;;;11.99;45.06;101026.48;2025346;97;25773;-81
2022/04/16 05:23:56;;;;;;;1.55;0.80;;;;;;;11.99;45.01;101041.73;2027163;97;31389;-80
2022/04/16 05:31:18;;;;;;;0.60;0.60;;;;;;;11.99;44.89;101058.72;1948275;100;25862;-80
2022/04/16 05:34:52;;;;;;;;;;;;;;;;;;;;;
2022/04/16 05:38:08;;;;;;;0.80;0.68;;;;;;;12.10;44.75;101065.98;1970409;98;25942;-80
2022/04/16 05:41:40;;;;;;;0.88;0.68;;;;;;;12.10;44.70;101069.48;1918770;103;25918;-81
2022/04/16 05:45:07;;;;;;;0.68;0.60;;;;;;;12.17;44.62;101073.16;1919330;99;25788;-80
2022/04/16 05:48:28;;;;;;;1.95;0.75;;;;;;;12.20;44.49;101070.63;1886415;101;25357;-80
2022/04/16 05:52:22;;;;;;;1.22;0.75;;;;;;;12.20;44.34;101079.34;1885575;104;25892;-80
2022/04/16 05:55:50;;;;;;;0.90;0.72;;;;;;;12.21;44.18;101075.88;1935231;102;25805;-82
2022/04/16 05:59:22;;;;;;;0.72;0.60;;;;;;;12.23;44.16;101083.36;1935348;98;25842;-79
2022/04/16 06:03:07;;;;;;;0.40;0.40;;;;;;;12.30;44.03;101093.56;1999043;97;25775;-79
2022/04/16 06:06:21;;;;;;;3.55;0.70;;;;;;;12.39;43.87;101089.03;2020526;97;25801;-79
2022/04/16 06:09:42;;;;;;;0.88;0.80;;;;;;;12.44;43.74;101084.37;2034671;96;26175;-79
2022/04/16 06:13:21;;;;;;;;;;;;;;;;;;;;;
2022/04/16 06:16:47;;;;;;;2.05;0.70;;;;;;;12.55;43.42;101095.11;2051195;95;25780;-79
2022/04/16 06:20:16;;;;;;;0.47;0.47;;;;;;;12.67;43.26;101086.72;2048299;96;25824;-80
2022/04/16 06:23:49;;;;;;;0.60;0.50;;;;;;;12.72;43.05;101099.48;2048238;96;25793;-79
2022/04/16 06:27:15;;;;;;;1.15;0.68;;;;;;;12.81;43.07;101093.19;2047177;96;25778;-80
2022/04/16 06:30:44;;;;;;;0.98;0.60;;;;;;;12.99;42.96;101098.00;2048621;96;25779;-80
2022/04/16 06:34:20;;;;;;;3.60;0.63;;;;;;;13.19;42.57;101094.14;2048502;96;25767;-81
2022/04/16 06:37:57;;;;;;;1.07;0.88;;;;;;;13.39;42.20;101105.56;2079656;93;25813;-81
2022/04/16 06:41:29;;;;;;;3.62;0.60;;;;;;;14.11;42.10;101113.30;2117634;92;26335;-81
2022/04/16 06:44:58;;;;;;;;;;;;;;;16.46;40.50;101108.78;2024360;95;25777;-81
2022/04/16 06:48:29;;;;;;;0.62;0.50;;;;;;;19.65;37.38;101114.80;2022880;97;25817;-81
2022/04/16 06:52:04;;;;;;;0.60;0.60;;;;;;;20.46;35.03;101120.67;2087769;93;25879;-81
2022/04/16 06:55:29;;;;;;;0.72;0.70;;;;;;;20.29;34.03;101126.50;1936099;100;25769;-81
2022/04/16 06:59:08;;;;;;;1.35;0.55;;;;;;;20.65;33.48;101139.13;1935503;100;25958;-81
2022/04/16 07:02:36;;;;;;;0.50;0.50;;;;;;;21.13;32.21;101131.30;1935941;101;33181;-82
2022/04/16 07:06:11;;;;;;;;;;;;;;;20.39;32.27;101138.81;1938144;100;25857;-80
2022/04/16 07:09:43;;;;;;;0.68;0.50;;;;;;;19.51;32.42;101139.47;1936244;100;25940;-81
2022/04/16 07:13:20;;;;;;;0.93;0.50;;;;;;;18.61;32.90;101149.91;1963301;99;25907;-81
2022/04/16 07:16:51;;;;;;;0.78;0.50;;;;;;;17.90;33.45;101158.84;1991551;97;25850;-80
2022/04/16 07:20:29;;;;;;;1.00;0.60;;;;;;;17.41;33.94;101161.52;1976190;100;25759;-80
2022/04/16 07:24:11;;;;;;;;;;;;;;;;;;;;;
2022/04/16 07:27:32;;;;;;;0.78;0.60;;;;;;;18.78;34.14;101175.97;1975436;99;25331;-81
2022/04/16 07:30:59;;;;;;;0.50;0.45;;;;;;;21.01;32.78;101175.13;1975955;99;25788;-81
2022/04/16 07:34:36;;;;;;;1.00;0.65;;;;;;;22.77;31.41;101187.98;1960800;100;25850;-80
2022/04/16 07:38:01;;;;;;;;;;;;;;;24.19;30.25;101178.09;1973878;99;25991;-81
2022/04/16 07:41:37;;;;;;;0.65;0.60;;;;;;;26.63;28.23;101196.59;1991027;98;25838;-80
2022/04/16 07:45:21;;;;;;;1.27;0.60;;;;;;;28.47;27.10;101200.71;1989329;99;25776;-81
2022/04/16 07:48:57;;;;;;;0.88;0.60;;;;;;;30.01;25.75;101209.66;2035723;96;25868;-81
2022/04/16 07:52:31;;;;;;;0.78;0.60;;;;;;;29.84;24.96;101206.37;2125439;90;25758;-82
2022/04/16 07:56:03;;;;;;;2.58;0.55;;;;;;;28.57;24.83;101215.99;2129280;92;25746;-82
2022/04/16 07:59:45;;;;;;;0.60;0.60;;;;;;;28.60;24.95;101223.92;2125930;91;25825;-82
2022/04/16 08:03:18;;;;;;;0.65;0.50;;;;;;;28.18;24.62;101216.49;2147866;92;25885;-82
2022/04/16 08:06:39;;;;;;;0.70;0.60;;;;;;;29.40;24.20;101231.08;2147744;92;25783;-82
2022/04/16 08:13:50;;;;;;;0.80;0.50;;;;;;;30.67;22.66;101238.09;2060284;95;25809;-82
2022/04/16 08:17:14;;;;;;;1.07;0.60;;;;;;;30.62;22.63;101241.00;2062239;95;25875;-82
2022/04/16 08:20:50;;;;;;;1.00;0.60;;;;;;;30.13;22.48;101241.36;2033330;96;25833;-81
2022/04/16 08:27:56;;;;;;;1.57;0.60;;;;;;;32.97;21.34;101245.25;1942868;101;25899;-82
2022/04/16 08:31:41;;;;;;;0.60;0.50;;;;;;;33.83;20.70;101253.32;1915375;100;25874;-83
2022/04/16 08:35:05;;;;;;;2.77;0.65;;;;;;;34.87;20.11;101251.43;1876567;103;26083;-87
2022/04/16 08:38:39;;;;;;;0.95;0.60;;;;;;;35.89;19.66;101269.02;1876459;103;25797;-81
2022/04/16 08:42:11;;;;;;;0.93;0.50;;;;;;;35.31;19.75;101274.78;1862864;105;25799;-82
2022/04/16 08:45:43;;;;;;;0.47;0.47;;;;;;;35.47;20.02;101268.69;1850606;105;25886;-80
2022/04/16 08:49:16;;;;;;;0.68;0.60;;;;;;;36.48;19.82;101267.17;1912269;98;25880;-83
2022/04/16 08:52:50;;;;;;;0.68;0.55;;;;;;;37.48;19.87;101274.39;1991336;98;25946;-81
2022/04/16 08:56:13;;;;;;;0.60;0.40;;;;;;;38.40;19.57;101271.37;2012920;96;25887;-81
2022/04/16 08:59:36;;;;;;;0.42;0.37;;;;;;;38.58;19.32;101278.59;2071970;92;25703;-82
2022/04/16 09:03:09;;;;;;;0.50;0.45;;;;;;;36.99;19.65;101272.61;2104994;92;25923;-82
2022/04/16 09:06:43;;;;;;;1.95;0.50;;;;;;;35.19;20.35;101267.82;2103271;92;26145;-82
2022/04/16 09:10:25;;;;;;;0.62;0.50;;;;;;;33.73;21.17;101268.36;2084090;93;25890;-81
2022/04/16 09:13:57;;;;;;;0.55;0.45;;;;;;;32.37;22.04;101259.31;2028661;95;25767;-84
2022/04/16 09:17:34;;;;;;;;;;;;;;;;;;;;;
2022/04/16 09:20:51;;;;;;;3.95;0.55;;;;;;;31.36;22.93;101255.92;1986296;98;26415;-76
2022/04/16 09:24:19;;;;;;;1.23;0.60;;;;;;;30.95;23.77;101270.89;2022376;95;25769;-77
2022/04/16 09:27:49;;;;;;;0.57;0.57;;;;;;;32.02;23.46;101263.86;2101436;93;26013;-76
2022/04/16 09:31:12;;;;;;;5.95;0.50;;;;;;;32.81;23.09;101265.48;2125253;93;25775;-77
2022/04/16 09:34:34;;;;;;;0.80;0.50;;;;;;;32.81;22.75;101270.41;2125255;93;25771;-77
2022/04/16 09:37:59;;;;;;;0.72;0.50;;;;;;;32.11;23.08;101275.05;2125074;93;25839;-76
2022/04/16 09:41:24;;;;;;;0.68;0.50;;;;;;;31.61;23.41;101276.25;2125031;93;25794;-76
2022/04/16 09:44:47;;;;;;;0.62;0.53;;;;;;;32.65;23.47;101274.90;2124203;93;25718;-76
2022/04/16 09:48:13;;;;;;;0.82;0.70;;;;;;;33.79;23.09;101271.57;2125580;93;25764;-75
2022/04/16 09:51:47;;;;;;;1.30;0.55;;;;;;;34.80;22.51;101278.05;2125176;93;25804;-77
2022/04/16 09:55:20;;;;;;;2.27;0.55;;;;;;;35.65;22.00;101277.48;2030239;97;25821;-76
2022/04/16 09:59:03;;;;;;;3.15;0.47;;;;;;;36.33;21.45;101281.86;2029601;96;25734;-77
2022/04/16 10:02:27;;;;;;;2.47;0.50;;;;;;;36.72;20.93;101278.64;2014111;97;25822;-78
2022/04/16 10:05:59;;;;;;;0.50;0.50;;;;;;;35.75;20.93;101288.09;2030046;96;25806;-77
2022/04/16 10:09:25;;;;;;;0.80;0.68;;;;;;;34.57;21.29;101291.69;2053541;94;25999;-76
2022/04/16 10:13:10;;;;;;;1.07;0.60;;;;;;;33.46;21.85;101284.34;2100225;92;25820;-78
2022/04/16 10:16:48;;;;;;;1.62;0.85;;;;;;;32.44;22.31;101287.27;2126782;90;25819;-76
2022/04/16 10:20:19;;;;;;;2.87;0.50;;;;;;;31.95;22.97;101284.39;2220096;88;25751;-77
2022/04/16 10:23:58;;;;;;;2.22;0.60;;;;;;;32.02;23.21;101281.39;2214348;87;25846;-75
2022/04/16 10:27:36;;;;;;;2.35;0.75;;;;;;;32.92;23.11;101281.47;2214255;88;25736;-76
2022/04/16 10:31:11;;;;;;;1.05;0.75;;;;;;;33.77;22.70;101270.78;2233781;87;25784;-75
2022/04/16 10:34:39;;;;;;;0.40;0.40;;;;;;;34.14;22.27;101276.71;2235765;87;25963;-76
2022/04/16 10:38:05;;;;;;;1.12;0.60;;;;;;;34.55;21.94;101281.42;2231890;87;25716;-76
2022/04/16 10:41:37;;;;;;;0.50;0.40;;;;;;;34.83;21.65;101281.02;2235376;87;25687;-76
2022/04/16 10:45:13;;;;;;;0.68;0.53;;;;;;;35.37;21.40;101284.73;2235684;87;26021;-75
2022/04/16 10:48:57;;;;;;;0.95;0.50;;;;;;;35.89;20.95;101279.01;2214663;88;25723;-77
2022/04/16 10:52:37;;;;;;;0.62;0.60;;;;;;;35.41;20.66;101285.40;2323060;84;25645;-76
2022/04/16 10:56:21;;;;;;;1.40;0.60;;;;;;;34.47;20.98;101276.46;2357493;83;25629;-76
2022/04/16 11:00:18;;;;;;;0.60;0.50;;;;;;;33.53;21.39;101280.35;2336212;84;25695;-77
2022/04/16 11:03:49;;;;;;;0.72;0.57;;;;;;;32.68;21.94;101270.69;2315285;84;25827;-76
2022/04/16 11:07:18;;;;;;;0.50;0.50;;;;;;;32.07;22.38;101264.02;2339561;84;25826;-77
2022/04/16 11:11:13;;;;;;;1.25;0.88;;;;;;;31.42;22.80;101267.75;2338009;84;25760;-76
2022/04/16 11:14:23;;;;;;;0.70;0.50;;;;;;;30.80;23.16;101273.81;2325510;84;25723;-77
2022/04/16 11:17:48;;;;;;;2.42;0.60;;;;;;;30.21;23.35;101271.14;2315769;84;25711;-77
2022/04/16 11:21:37;;;;;;;0.62;0.62;;;;;;;29.68;23.66;101278.32;2338266;83;25300;-77
2022/04/16 11:25:08;;;;;;;4.55;0.60;;;;;;;29.90;23.27;101276.45;2337777;84;25832;-76
2022/04/16 11:36:09;;;;;;;2.55;0.60;;;;;;;29.96;22.54;101299.52;2338327;84;25764;-76
2022/04/16 11:39:35;;;;;;;3.33;0.65;;;;;;;29.51;22.74;101282.54;2193951;88;26037;-76
2022/04/16 11:43:04;;;;;;;3.40;0.55;;;;;;;29.51;23.08;101281.20;2195042;90;25805;-76
2022/04/16 11:46:24;;;;;;;0.50;0.40;;;;;;;29.85;23.31;101284.72;2206878;87;25290;-77
2022/04/16 11:50:09;;;;;;;;;;;;;;;;;;;;;
2022/04/16 11:53:23;;;;;;;5.25;0.80;;;;;;;30.00;23.08;101286.34;2225959;88;25782;-74
2022/04/16 11:56:50;;;;;;;5.05;0.60;;;;;;;29.86;23.48;101283.77;2208969;88;25767;-75
2022/04/16 12:00:14;;;;;;;1.70;0.55;;;;;;;30.04;23.74;101284.82;2259979;87;25788;-76
2022/04/16 12:03:56;;;;;;;0.80;0.40;;;;;;;29.77;23.90;101285.53;2202605;88;25836;-76
2022/04/16 12:07:19;;;;;;;1.12;0.50;;;;;;;29.42;24.25;101293.18;2283927;85;25707;-75
2022/04/16 12:10:56;;;;;;;1.55;0.30;;;;;;;29.42;24.61;101287.80;2246509;87;25854;-75
2022/04/16 12:14:23;;;;;;;1.17;0.40;;;;;;;29.10;24.81;101285.55;2246102;88;25850;-74
2022/04/16 12:17:46;;;;;;;0.75;0.40;;;;;;;28.69;25.18;101275.44;2268030;87;25797;-77
2022/04/16 12:21:14;;;;;;;1.87;0.50;;;;;;;28.70;25.70;101287.91;2244320;87;26074;-77
2022/04/16 12:24:41;;;;;;;3.43;0.47;;;;;;;29.12;25.89;101286.34;2247327;87;26490;-76
2022/04/16 12:28:09;;;;;;;1.42;0.40;;;;;;;29.70;25.69;101304.20;2244247;86;25772;-76
2022/04/16 12:31:38;;;;;;;1.35;0.40;;;;;;;30.18;25.09;101290.07;2226125;87;25769;-76
2022/04/16 12:35:02;;;;;;;1.40;0.50;;;;;;;30.37;24.44;101305.81;2268800;83;25904;-76
2022/04/16 12:38:56;;;;;;;;;;;;;;;;;;;;;
2022/04/16 12:42:20;;;;;;;4.25;0.60;;;;;;;30.38;23.76;101299.98;2210267;88;25834;-81
2022/04/16 12:49:28;;;;;;;0.60;0.53;;;;;;;29.67;23.45;101294.02;2132178;92;25737;-85
2022/04/16 12:52:57;;;;;;;0.60;0.45;;;;;;;29.21;23.26;101300.77;2157099;90;25702;-82
2022/04/16 12:56:29;;;;;;;0.50;0.50;;;;;;;29.25;22.91;101290.78;2117752;91;26121;-85
2022/04/16 12:59:56;;;;;;;0.85;0.42;;;;;;;29.12;22.57;101299.30;2142522;91;25900;-86
2022/04/16 13:03:38;;;;;;;;;;;;;;;;;;;;;
2022/04/16 13:07:01;;;;;;;0.57;0.53;;;;;;;28.70;22.22;101297.78;2098047;93;25898;-77
2022/04/16 13:10:21;;;;;;;0.47;0.45;;;;;;;28.84;22.10;101287.39;2086124;94;25951;-80
2022/04/16 13:14:04;;;;;;;0.60;0.50;;;;;;;29.00;22.08;101290.87;2008204;97;25869;-77
2022/04/16 13:17:28;;;;;;;1.20;0.47;;;;;;;28.95;21.89;101286.97;1997466;97;26200;-80
2022/04/16 13:24:25;;;;;;;0.50;0.50;;;;;;;28.11;21.78;101294.93;1939749;101;26479;-78
2022/04/16 13:27:56;;;;;;;0.55;0.50;;;;;;;27.64;21.86;101289.81;1952420;101;25848;-80
2022/04/16 13:31:17;;;;;;;0.75;0.60;;;;;;;27.54;21.70;101295.49;1961373;97;25775;-78
2022/04/16 13:34:43;;;;;;;3.87;0.78;;;;;;;27.64;21.53;101289.81;1987849;98;25387;-78
2022/04/16 13:38:09;;;;;;;0.53;0.53;;;;;;;27.69;21.35;101287.87;2049690;95;25919;-77
2022/04/16 13:41:40;;;;;;;0.70;0.50;;;;;;;27.44;21.35;101286.44;2082022;95;25782;-80
2022/04/16 13:45:01;;;;;;;0.50;0.50;;;;;;;27.12;21.28;101289.64;2084574;94;25738;-76
2022/04/16 13:48:35;;;;;;;0.70;0.50;;;;;;;26.70;21.65;101284.66;2070536;94;26242;-78
2022/04/16 13:52:04;;;;;;;0.60;0.50;;;;;;;26.41;21.57;101286.78;2047447;96;25845;-77
2022/04/16 13:55:35;;;;;;;1.45;0.47;;;;;;;26.45;21.57;101276.41;2047381;95;26030;-78
2022/04/16 13:59:06;;;;;;;0.65;0.50;;;;;;;26.42;21.41;101285.86;2063232;95;25832;-77
2022/04/16 14:02:33;;;;;;;0.55;0.40;;;;;;;26.05;21.60;101293.52;2073123;89;25952;-79
2022/04/16 14:06:01;;;;;;;1.75;0.50;;;;;;;25.66;21.80;101280.25;2120488;93;26096;-77
2022/04/16 14:09:21;;;;;;;1.07;0.42;;;;;;;25.52;21.88;101280.17;2132448;89;25513;-81
2022/04/16 14:12:46;;;;;;;0.42;0.42;;;;;;;25.55;21.92;101276.97;2206480;89;25817;-79
2022/04/16 14:16:16;;;;;;;0.40;0.40;;;;;;;25.71;21.73;101275.23;2196181;89;25703;-79
2022/04/16 14:19:39;;;;;;;0.68;0.40;;;;;;;25.83;21.68;101276.31;2213013;86;25817;-80
2022/04/16 14:23:02;;;;;;;2.60;0.53;;;;;;;25.73;21.51;101274.30;2249926;86;25569;-78
2022/04/16 14:26:27;;;;;;;1.12;0.60;;;;;;;25.41;21.73;101275.06;2272188;84;25676;-79
2022/04/16 14:29:53;;;;;;;0.47;0.47;;;;;;;25.08;21.96;101279.38;2276829;86;25824;-78
2022/04/16 14:33:32;;;;;;;2.05;0.57;;;;;;;24.74;21.88;101270.77;2264659;86;25777;-79
2022/04/16 14:36:57;;;;;;;0.47;0.47;;;;;;;24.44;21.84;101274.47;2278576;86;25710;-79
2022/04/16 14:40:23;;;;;;;0.62;0.50;;;;;;;24.31;21.93;101264.92;2260282;85;25743;-79
2022/04/16 14:43:58;;;;;;;0.30;0.30;;;;;;;24.30;21.99;101256.52;2318095;85;25619;-80
2022/04/16 14:47:33;;;;;;;;;;;;;;;;;;;;;
2022/04/16 14:50:47;;;;;;;2.17;0.50;;;;;;;23.90;22.01;101272.34;2273510;86;25850;-78
2022/04/16 14:54:11;;;;;;;0.62;0.47;;;;;;;23.65;22.08;101274.03;2272032;85;25770;-78
2022/04/16 14:57:41;;;;;;;4.75;0.33;;;;;;;23.53;22.22;101268.92;2237091;88;26005;-76
2022/04/16 15:01:06;;;;;;;0.37;0.37;;;;;;;23.48;22.38;101268.97;2243327;88;25706;-80
2022/04/16 15:04:32;;;;;;;0.65;0.40;;;;;;;23.23;22.36;101270.27;2251546;86;25767;-83
2022/04/16 15:07:59;;;;;;;5.78;0.50;;;;;;;22.95;22.55;101276.39;2277773;85;25389;-83
2022/04/16 15:11:23;;;;;;;4.95;0.45;;;;;;;22.82;22.92;101276.55;2277781;86;25636;-82
2022/04/16 15:15:00;;;;;;;0.50;0.40;;;;;;;22.82;23.36;101275.22;2273426;86;25720;-83
2022/04/16 15:18:33;;;;;;;0.80;0.60;;;;;;;22.81;23.72;101279.20;2279931;86;26338;-81
2022/04/16 15:21:57;;;;;;;1.65;0.50;;;;;;;22.79;24.49;101279.70;2273378;86;26334;-81
2022/04/16 15:25:26;;;;;;;0.55;0.55;;;;;;;22.90;24.90;101275.56;2263952;85;25762;-81
2022/04/16 15:28:52;;;;;;;0.45;0.40;;;;;;;22.96;25.40;101271.08;2277990;85;25857;-82
2022/04/16 15:32:30;;;;;;;0.53;0.47;;;;;;;22.99;25.64;101274.16;2279531;86;25745;-81
2022/04/16 15:35:56;;;;;;;1.12;0.50;;;;;;;22.90;25.93;101278.22;2203276;88;25855;-81
2022/04/16 15:39:31;;;;;;;1.35;0.60;;;;;;;22.75;26.36;101272.66;2201727;89;25753;-80
2022/04/16 15:42:58;;;;;;;1.65;0.82;;;;;;;22.60;26.78;101276.36;2204287;88;25787;-80
2022/04/16 15:46:20;;;;;;;2.65;0.90;;;;;;;22.45;27.35;101284.08;2208273;88;25731;-80
2022/04/16 15:49:48;;;;;;;1.22;0.80;;;;;;;22.34;27.72;101280.63;2215296;87;25346;-80
2022/04/16 15:53:29;;;;;;;3.05;0.80;;;;;;;22.23;28.11;101280.75;2197137;89;25796;-80
2022/04/16 15:56:50;;;;;;;1.70;1.00;;;;;;;22.15;28.63;101271.55;2204228;87;25760;-81
2022/04/16 16:00:15;;;;;;;1.90;1.27;;;;;;;22.10;28.98;101278.63;2165263;91;26343;-81
2022/04/16 16:03:51;;;;;;;4.47;1.07;;;;;;;22.05;29.25;101278.26;2165056;88;26043;-81
2022/04/16 16:07:29;;;;;;;4.03;1.10;;;;;;;21.98;29.62;101283.20;2164221;88;25754;-78
2022/04/16 16:11:00;;;;;;;1.98;0.90;;;;;;;21.90;29.92;101284.56;2155717;88;25788;-81
2022/04/16 16:14:47;;;;;;;3.58;0.90;;;;;;;21.83;30.12;101286.39;2213525;87;25803;-80
2022/04/16 16:18:17;;;;;;;1.77;0.80;;;;;;;21.75;30.34;101294.00;2159744;90;25771;-81
2022/04/16 16:21:54;;;;;;;1.20;0.95;;;;;;;21.64;30.55;101289.66;2148231;90;26207;-80
2022/04/16 16:25:24;;;;;;;1.25;0.90;;;;;;;21.52;30.72;101283.55;2125157;93;25399;-79
2022/04/16 16:29:00;;;;;;;0.82;0.70;;;;;;;21.37;30.91;101286.76;2081958;94;25875;-80
2022/04/16 16:32:42;;;;;;;0.95;0.80;;;;;;;21.22;31.16;101290.33;2108526;93;25841;-80
2022/04/16 16:36:26;;;;;;;0.80;0.70;;;;;;;21.11;31.43;101288.19;2123429;91;35657;-81
2022/04/16 16:39:41;;;;;;;3.10;0.70;;;;;;;21.01;31.63;101291.78;2108581;92;25737;-81
2022/04/16 16:43:09;;;;;;;2.87;0.85;;;;;;;20.91;31.78;101290.06;2190684;86;26088;-81
2022/04/16 16:46:37;;;;;;;6.87;0.93;;;;;;;20.81;30.94;101290.55;2150049;89;25752;-79
2022/04/16 16:50:06;;;;;;;2.08;1.10;;;;;;;20.89;30.29;101295.80;2140818;91;25793;-80
2022/04/16 16:53:47;;;;;;;;;;;;;;;;;;;;;
2022/04/16 16:57:06;;;;;;;1.15;0.70;;;;;;;20.66;30.23;101300.77;2153043;89;25831;-79
2022/04/16 17:00:35;;;;;;;2.67;0.88;;;;;;;20.71;29.30;101309.56;2191610;90;25784;-77
2022/04/16 17:07:41;;;;;;;2.27;0.70;;;;;;;20.40;29.36;101316.69;2190505;90;26048;-75
2022/04/16 17:11:07;;;;;;;2.20;0.90;;;;;;;20.22;29.59;101327.33;2193982;90;25828;-76
2022/04/16 17:18:39;;;;;;;1.10;0.57;;;;;;;19.90;30.02;101331.29;2246264;86;25737;-78
2022/04/16 17:22:08;;;;;;;2.45;1.17;;;;;;;19.74;30.29;101333.03;2262269;87;25820;-77
2022/04/16 17:25:34;;;;;;;1.07;0.78;;;;;;;19.61;30.54;101338.73;2267087;87;25768;-77
2022/04/16 17:29:03;;;;;;;1.05;0.70;;;;;;;19.51;30.85;101342.25;2266560;87;25819;-76
2022/04/16 17:32:31;;;;;;;2.40;0.82;;;;;;;19.39;31.06;101349.69;2266680;87;25771;-77
2022/04/16 17:35:52;;;;;;;2.58;0.80;;;;;;;19.27;31.23;101338.66;2255112;87;25802;-76
2022/04/16 17:39:26;;;;;;;1.20;0.88;;;;;;;19.18;31.45;101349.19;2244491;87;25808;-77